createdAt,value
2022-08-17T00:00:34.672Z,87.33
2022-08-17T00:01:27.701Z,87.12
2022-08-17T00:02:26.167Z,87.07
2022-08-17T00:03:21.084Z,86.91
2022-08-17T00:04:11.837Z,87.04
2022-08-17T00:04:59.007Z,85.60
2022-08-17T00:05:51.481Z,87.04
2022-08-17T00:06:38.031Z,87.01
2022-08-17T00:07:24.480Z,86.87
2022-08-17T00:08:14.096Z,86.06
2022-08-17T00:09:04.037Z,86.18
2022-08-17T00:09:50.520Z,85.55
2022-08-17T00:10:37.706Z,84.91
2022-08-17T00:11:31.673Z,85.38
2022-08-17T00:12:41.839Z,85.21
2022-08-17T00:13:33.319Z,86.64
2022-08-17T00:14:20.087Z,87.51
2022-08-17T00:15:10.437Z,87.68
2022-08-17T00:16:04.543Z,87.74
2022-08-17T00:16:56.876Z,86.67
2022-08-17T00:17:47.409Z,86.27
2022-08-17T00:19:01.957Z,87.97
2022-08-17T00:19:41.721Z,87.22
2022-08-17T00:20:33.462Z,86.92
2022-08-17T00:21:24.010Z,86.12
2022-08-17T00:22:33.853Z,85.28
2022-08-17T00:23:18.733Z,85.99
2022-08-17T00:24:05.548Z,85.44
2022-08-17T00:24:52.057Z,85.01
2022-08-17T00:25:43.878Z,84.64
2022-08-17T00:26:34.891Z,83.92
2022-08-17T00:27:31.851Z,84.63
2022-08-17T00:28:21.056Z,84.57
2022-08-17T00:29:08.616Z,84.50
2022-08-17T00:29:55.042Z,84.62
2022-08-17T00:30:48.495Z,84.73
2022-08-17T00:31:37.939Z,86.27
2022-08-17T00:33:12.481Z,85.88
2022-08-17T00:33:31.863Z,85.46
2022-08-17T00:34:18.881Z,85.71
2022-08-17T00:35:08.617Z,85.08
2022-08-17T00:35:58.114Z,85.76
2022-08-17T00:36:44.847Z,85.12
2022-08-17T00:37:31.297Z,85.93
2022-08-17T00:38:18.611Z,86.21
2022-08-17T00:39:05.475Z,85.42
2022-08-17T00:39:52.292Z,85.31
2022-08-17T00:40:48.095Z,86.70
2022-08-17T00:41:35.725Z,85.84
2022-08-17T00:42:22.241Z,85.70
2022-08-17T00:43:29.950Z,86.74
2022-08-17T00:44:16.872Z,85.92
2022-08-17T00:45:09.502Z,86.76
2022-08-17T00:45:56.640Z,85.84
2022-08-17T00:46:44.487Z,86.02
2022-08-17T00:47:31.070Z,86.13
2022-08-17T00:48:29.340Z,86.59
2022-08-17T00:49:19.556Z,86.77
2022-08-17T00:50:09.919Z,86.63
2022-08-17T00:51:05.401Z,86.70
2022-08-17T00:52:11.897Z,86.66
2022-08-17T00:52:58.869Z,86.55
2022-08-17T00:53:54.001Z,86.60
2022-08-17T00:54:44.649Z,86.50
2022-08-17T00:55:32.774Z,85.48
2022-08-17T00:56:28.343Z,85.56
2022-08-17T00:57:24.411Z,85.28
2022-08-17T00:58:11.098Z,85.74
2022-08-17T00:58:58.674Z,85.28
2022-08-17T01:00:03.670Z,84.45
2022-08-17T01:00:51.813Z,85.31
2022-08-17T01:01:39.795Z,86.04
2022-08-17T01:02:29.454Z,86.03
2022-08-17T01:03:25.856Z,85.95
2022-08-17T01:04:13.698Z,86.36
2022-08-17T01:05:01.515Z,86.52
2022-08-17T01:05:53.142Z,86.41
2022-08-17T01:06:42.761Z,87.20
2022-08-17T01:07:29.629Z,87.53
2022-08-17T01:08:23.293Z,87.92
2022-08-17T01:09:10.324Z,88.79
2022-08-17T01:09:57.343Z,88.26
2022-08-17T01:10:59.735Z,89.03
2022-08-17T01:11:52.537Z,88.20
2022-08-17T01:12:39.285Z,88.91
2022-08-17T01:13:27.679Z,90.33
2022-08-17T01:14:14.486Z,91.08
2022-08-17T01:15:00.998Z,91.38
2022-08-17T01:16:00.297Z,92.18
2022-08-17T01:16:49.348Z,92.53
2022-08-17T01:17:35.996Z,93.49
2022-08-17T01:18:22.939Z,93.18
2022-08-17T01:19:20.111Z,93.09
2022-08-17T01:20:07.048Z,94.32
2022-08-17T01:20:56.291Z,94.70
2022-08-17T01:21:59.986Z,96.41
2022-08-17T01:22:46.692Z,97.12
2022-08-17T01:23:33.726Z,96.76
2022-08-17T01:24:20.362Z,97.68
2022-08-17T01:25:09.026Z,98.74
2022-08-17T01:26:02.204Z,98.63
2022-08-17T01:26:49.121Z,99.07
2022-08-17T01:27:38.259Z,100.00
2022-08-17T01:28:52.168Z,100.00
2022-08-17T01:29:39.151Z,100.00
2022-08-17T01:30:57.852Z,100.00
2022-08-17T01:31:42.529Z,100.00
2022-08-17T01:32:30.335Z,100.00
2022-08-17T01:33:17.007Z,100.00
2022-08-17T01:34:08.426Z,100.00
2022-08-17T01:34:55.351Z,100.00
2022-08-17T01:35:42.206Z,100.00
2022-08-17T01:36:28.889Z,100.00
2022-08-17T01:37:16.865Z,100.00
2022-08-17T01:38:03.792Z,100.00
2022-08-17T01:38:50.389Z,100.00
2022-08-17T01:39:48.022Z,100.00
2022-08-17T01:40:38.993Z,100.00
2022-08-17T01:41:26.946Z,100.00
2022-08-17T01:42:34.953Z,100.00
2022-08-17T01:43:28.584Z,100.00
2022-08-17T01:44:16.744Z,100.00
2022-08-17T01:45:12.446Z,100.00
2022-08-17T01:46:04.020Z,100.00
2022-08-17T01:46:50.754Z,100.00
2022-08-17T01:47:38.728Z,100.00
2022-08-17T01:48:35.298Z,100.00
2022-08-17T01:49:21.773Z,100.00
2022-08-17T01:50:15.665Z,100.00
2022-08-17T01:51:02.483Z,100.00
2022-08-17T01:51:49.434Z,100.00
2022-08-17T01:52:36.143Z,100.00
2022-08-17T01:53:30.101Z,100.00
2022-08-17T01:54:19.927Z,100.00
2022-08-17T01:55:07.220Z,100.00
2022-08-17T01:56:01.972Z,100.00
2022-08-17T01:56:51.411Z,100.00
2022-08-17T01:57:37.981Z,100.00
2022-08-17T01:58:24.474Z,100.00
2022-08-17T01:59:12.842Z,100.00
2022-08-17T01:59:59.758Z,100.00
2022-08-17T02:01:01.276Z,100.00
2022-08-17T02:01:48.932Z,100.00
2022-08-17T02:02:35.457Z,100.00
2022-08-17T02:03:24.210Z,100.00
2022-08-17T02:04:11.603Z,100.00
2022-08-17T02:04:58.238Z,100.00
2022-08-17T02:05:45.344Z,100.00
2022-08-17T02:06:47.083Z,100.00
2022-08-17T02:08:00.402Z,100.00
2022-08-17T02:09:02.724Z,100.00
2022-08-17T02:09:52.716Z,100.00
2022-08-17T02:10:39.437Z,100.00
2022-08-17T02:11:36.053Z,100.00
2022-08-17T02:12:38.080Z,100.00
2022-08-17T02:13:29.583Z,100.00
2022-08-17T02:14:16.110Z,100.00
2022-08-17T02:15:02.632Z,100.00
2022-08-17T02:15:49.062Z,100.00
2022-08-17T02:16:38.366Z,100.00
2022-08-17T02:17:24.869Z,100.00
2022-08-17T02:18:12.461Z,100.00
2022-08-17T02:18:59.679Z,100.00
2022-08-17T02:19:46.165Z,100.00
2022-08-17T02:20:36.424Z,100.00
2022-08-17T02:21:29.183Z,100.00
2022-08-17T02:22:18.212Z,100.00
2022-08-17T02:23:08.819Z,100.00
2022-08-17T02:23:56.315Z,100.00
2022-08-17T02:25:00.414Z,100.00
2022-08-17T02:25:50.027Z,100.00
2022-08-17T02:26:37.215Z,100.00
2022-08-17T02:27:23.861Z,100.00
2022-08-17T02:28:11.187Z,100.00
2022-08-17T02:28:57.793Z,100.00
2022-08-17T02:29:44.345Z,100.00
2022-08-17T02:31:01.866Z,100.00
2022-08-17T02:31:37.810Z,100.00
2022-08-17T02:32:28.143Z,100.00
2022-08-17T02:33:15.256Z,100.00
2022-08-17T02:34:03.822Z,100.00
2022-08-17T02:34:54.500Z,100.00
2022-08-17T02:35:42.865Z,100.00
2022-08-17T02:36:29.365Z,100.00
2022-08-17T02:37:17.774Z,100.00
2022-08-17T02:38:06.407Z,100.00
2022-08-17T02:38:53.172Z,100.00
2022-08-17T02:39:39.799Z,100.00
2022-08-17T02:40:35.794Z,100.00
2022-08-17T02:41:23.245Z,100.00
2022-08-17T02:42:09.714Z,100.00
2022-08-17T02:42:56.965Z,100.00
2022-08-17T02:43:43.501Z,100.00
2022-08-17T02:44:39.045Z,100.00
2022-08-17T02:45:27.042Z,100.00
2022-08-17T02:46:13.561Z,100.00
2022-08-17T02:47:00.535Z,100.00
2022-08-17T02:47:47.282Z,100.00
2022-08-17T02:48:33.750Z,100.00
2022-08-17T02:49:20.251Z,100.00
2022-08-17T02:50:09.331Z,100.00
2022-08-17T02:50:55.794Z,100.00
2022-08-17T02:51:42.266Z,100.00
2022-08-17T02:52:42.945Z,100.00
2022-08-17T02:53:35.623Z,100.00
2022-08-17T02:54:39.437Z,100.00
2022-08-17T02:55:34.751Z,100.00
2022-08-17T02:56:21.590Z,100.00
2022-08-17T02:57:08.090Z,100.00
2022-08-17T02:57:55.631Z,100.00
2022-08-17T02:58:42.378Z,100.00
2022-08-17T02:59:30.019Z,100.00
2022-08-17T03:00:24.652Z,100.00
2022-08-17T03:01:11.308Z,100.00
2022-08-17T03:01:57.861Z,100.00
2022-08-17T03:02:45.529Z,100.00
2022-08-17T03:03:32.907Z,100.00
2022-08-17T03:04:20.685Z,100.00
2022-08-17T03:05:08.921Z,100.00
2022-08-17T03:05:55.363Z,100.00
2022-08-17T03:06:42.614Z,100.00
2022-08-17T03:07:30.444Z,100.00
2022-08-17T03:08:17.980Z,100.00
2022-08-17T03:09:04.724Z,100.00
2022-08-17T03:09:53.891Z,100.00
2022-08-17T03:10:41.275Z,100.00
2022-08-17T03:11:27.860Z,100.00
2022-08-17T03:12:15.016Z,100.00
2022-08-17T03:13:01.628Z,100.00
2022-08-17T03:13:48.388Z,100.00
2022-08-17T03:14:41.492Z,100.00
2022-08-17T03:15:31.713Z,100.00
2022-08-17T03:16:19.361Z,100.00
2022-08-17T03:17:06.738Z,100.00
2022-08-17T03:17:55.008Z,100.00
2022-08-17T03:18:41.492Z,100.00
2022-08-17T03:19:27.966Z,100.00
2022-08-17T03:20:16.187Z,100.00
2022-08-17T03:21:04.448Z,100.00
2022-08-17T03:21:55.059Z,100.00
2022-08-17T03:22:48.066Z,100.00
2022-08-17T03:23:42.053Z,100.00
2022-08-17T03:24:29.127Z,100.00
2022-08-17T03:25:21.370Z,100.00
2022-08-17T03:26:12.292Z,100.00
2022-08-17T03:27:02.208Z,100.00
2022-08-17T03:27:48.730Z,100.00
2022-08-17T03:28:38.920Z,100.00
2022-08-17T03:29:25.403Z,100.00
2022-08-17T03:30:13.497Z,100.00
2022-08-17T03:31:00.008Z,100.00
2022-08-17T03:31:46.813Z,100.00
2022-08-17T03:32:44.436Z,100.00
2022-08-17T03:33:31.368Z,100.00
2022-08-17T03:34:18.185Z,100.00
2022-08-17T03:35:05.129Z,100.00
2022-08-17T03:35:51.941Z,100.00
2022-08-17T03:36:38.414Z,100.00
2022-08-17T03:37:24.930Z,100.00
2022-08-17T03:38:13.360Z,100.00
2022-08-17T03:39:02.423Z,100.00
2022-08-17T03:39:49.314Z,100.00
2022-08-17T03:40:57.288Z,100.00
2022-08-17T03:41:43.379Z,100.00
2022-08-17T03:42:31.792Z,100.00
2022-08-17T03:43:22.380Z,100.00
2022-08-17T03:44:09.018Z,100.00
2022-08-17T03:44:59.370Z,100.00
2022-08-17T03:46:04.943Z,100.00
2022-08-17T03:47:11.070Z,100.00
2022-08-17T03:48:16.019Z,100.00
2022-08-17T03:49:24.266Z,100.00
2022-08-17T03:50:38.408Z,100.00
2022-08-17T03:51:43.550Z,100.00
2022-08-17T03:52:51.895Z,100.00
2022-08-17T03:54:08.402Z,100.00
2022-08-17T03:55:14.624Z,100.00
2022-08-17T03:56:22.290Z,100.00
2022-08-17T03:57:11.633Z,100.00
2022-08-17T03:57:58.120Z,100.00
2022-08-17T03:58:45.427Z,100.00
2022-08-17T03:59:33.594Z,100.00
2022-08-17T04:00:20.056Z,100.00
2022-08-17T04:01:07.158Z,100.00
2022-08-17T04:01:58.917Z,100.00
2022-08-17T04:02:45.409Z,100.00
2022-08-17T04:03:31.988Z,100.00
2022-08-17T04:04:19.908Z,100.00
2022-08-17T04:05:15.162Z,100.00
2022-08-17T04:06:02.188Z,100.00
2022-08-17T04:06:48.687Z,100.00
2022-08-17T04:07:35.285Z,100.00
2022-08-17T04:08:21.758Z,100.00
2022-08-17T04:09:09.562Z,100.00
2022-08-17T04:09:57.799Z,100.00
2022-08-17T04:10:45.253Z,100.00
2022-08-17T04:11:33.196Z,100.00
2022-08-17T04:12:22.699Z,100.00
2022-08-17T04:13:09.860Z,100.00
2022-08-17T04:13:56.744Z,100.00
2022-08-17T04:14:53.124Z,100.00
2022-08-17T04:15:41.900Z,100.00
2022-08-17T04:16:29.360Z,100.00
2022-08-17T04:17:15.878Z,100.00
2022-08-17T04:18:03.014Z,100.00
2022-08-17T04:18:51.105Z,100.00
2022-08-17T04:19:37.528Z,100.00
2022-08-17T04:20:25.153Z,100.00
2022-08-17T04:21:11.712Z,100.00
2022-08-17T04:21:58.373Z,100.00
2022-08-17T04:23:09.416Z,100.00
2022-08-17T04:23:58.798Z,100.00
2022-08-17T04:24:45.250Z,100.00
2022-08-17T04:25:34.802Z,100.00
2022-08-17T04:26:54.203Z,100.00
2022-08-17T04:27:29.267Z,100.00
2022-08-17T04:28:17.390Z,100.00
2022-08-17T04:29:03.986Z,100.00
2022-08-17T04:29:54.600Z,100.00
2022-08-17T04:30:45.079Z,100.00
2022-08-17T04:31:33.161Z,100.00
2022-08-17T04:32:23.090Z,100.00
2022-08-17T04:33:28.763Z,100.00
2022-08-17T04:34:16.734Z,100.00
2022-08-17T04:35:06.709Z,100.00
2022-08-17T04:35:58.143Z,100.00
2022-08-17T04:36:50.348Z,100.00
2022-08-17T04:37:37.175Z,100.00
2022-08-17T04:38:29.253Z,100.00
2022-08-17T04:39:15.870Z,100.00
2022-08-17T04:40:21.337Z,100.00
2022-08-17T04:41:27.549Z,100.00
2022-08-17T04:42:17.359Z,100.00
2022-08-17T04:43:08.449Z,100.00
2022-08-17T04:43:58.123Z,100.00
2022-08-17T04:44:44.578Z,100.00
2022-08-17T04:45:32.317Z,100.00
2022-08-17T04:46:22.372Z,100.00
2022-08-17T04:47:10.556Z,100.00
2022-08-17T04:48:00.628Z,100.00
2022-08-17T04:48:50.912Z,100.00
2022-08-17T04:49:37.935Z,100.00
2022-08-17T04:50:24.993Z,100.00
2022-08-17T04:51:16.704Z,100.00
2022-08-17T04:52:04.680Z,100.00
2022-08-17T04:52:51.423Z,100.00
2022-08-17T04:53:39.918Z,100.00
2022-08-17T04:54:26.982Z,100.00
2022-08-17T04:55:15.329Z,100.00
2022-08-17T04:56:02.004Z,100.00
2022-08-17T04:56:49.196Z,100.00
2022-08-17T04:57:39.479Z,100.00
2022-08-17T04:58:28.547Z,100.00
2022-08-17T04:59:22.506Z,100.00
2022-08-17T05:00:10.654Z,100.00
2022-08-17T05:00:57.207Z,100.00
2022-08-17T05:01:47.393Z,100.00
2022-08-17T05:02:34.361Z,100.00
2022-08-17T05:03:21.059Z,100.00
2022-08-17T05:04:33.537Z,100.00
2022-08-17T05:05:36.275Z,100.00
2022-08-17T05:06:23.678Z,100.00
2022-08-17T05:07:10.941Z,100.00
2022-08-17T05:08:00.043Z,100.00
2022-08-17T05:08:46.528Z,100.00
2022-08-17T05:09:33.099Z,100.00
2022-08-17T05:10:21.129Z,100.00
2022-08-17T05:11:07.709Z,100.00
2022-08-17T05:11:55.346Z,100.00
2022-08-17T05:12:43.391Z,100.00
2022-08-17T05:13:29.966Z,100.00
2022-08-17T05:14:17.780Z,100.00
2022-08-17T05:15:04.888Z,100.00
2022-08-17T05:15:55.344Z,100.00
2022-08-17T05:16:42.004Z,100.00
2022-08-17T05:17:28.454Z,100.00
2022-08-17T05:18:16.585Z,100.00
2022-08-17T05:19:03.789Z,100.00
2022-08-17T05:19:52.085Z,100.00
2022-08-17T05:20:40.612Z,100.00
2022-08-17T05:21:27.555Z,100.00
2022-08-17T05:22:14.395Z,100.00
2022-08-17T05:23:07.016Z,100.00
2022-08-17T05:23:54.850Z,100.00
2022-08-17T05:24:53.330Z,100.00
2022-08-17T05:25:47.698Z,100.00
2022-08-17T05:26:34.442Z,100.00
2022-08-17T05:27:23.555Z,100.00
2022-08-17T05:28:11.537Z,100.00
2022-08-17T05:29:00.436Z,100.00
2022-08-17T05:29:49.365Z,100.00
2022-08-17T05:30:37.963Z,100.00
2022-08-17T05:31:24.769Z,100.00
2022-08-17T05:32:38.496Z,99.93
2022-08-17T05:33:26.627Z,100.00
2022-08-17T05:34:13.102Z,100.00
2022-08-17T05:35:00.328Z,100.00
2022-08-17T05:35:49.872Z,99.90
2022-08-17T05:36:44.050Z,100.00
2022-08-17T05:37:31.148Z,99.80
2022-08-17T05:38:21.026Z,100.00
2022-08-17T05:39:07.673Z,99.68
2022-08-17T05:39:54.313Z,100.00
2022-08-17T05:40:41.129Z,100.00
2022-08-17T05:41:27.568Z,100.00
2022-08-17T05:42:18.977Z,100.00
2022-08-17T05:43:16.955Z,100.00
2022-08-17T05:44:05.372Z,100.00
2022-08-17T05:44:52.250Z,100.00
2022-08-17T05:45:55.521Z,99.70
2022-08-17T05:46:49.265Z,100.00
2022-08-17T05:47:39.160Z,99.95
2022-08-17T05:48:35.464Z,98.94
2022-08-17T05:49:28.689Z,97.65
2022-08-17T05:50:29.877Z,98.40
2022-08-17T05:51:53.130Z,97.19
2022-08-17T05:53:17.220Z,97.13
2022-08-17T05:54:06.640Z,96.64
2022-08-17T05:55:13.702Z,96.23
2022-08-17T05:56:27.977Z,96.11
2022-08-17T05:57:36.040Z,95.51
2022-08-17T05:58:55.480Z,94.17
2022-08-17T05:59:57.458Z,94.50
2022-08-17T06:01:03.852Z,94.57
2022-08-17T06:02:05.432Z,92.45
2022-08-17T06:03:15.023Z,92.58
2022-08-17T06:04:16.824Z,91.43
2022-08-17T06:05:30.930Z,91.17
2022-08-17T06:06:36.604Z,90.58
2022-08-17T06:07:39.552Z,89.29
2022-08-17T06:08:39.653Z,88.02
2022-08-17T06:09:40.107Z,88.51
2022-08-17T06:10:35.437Z,88.17
2022-08-17T06:11:58.729Z,87.39
2022-08-17T06:13:00.373Z,87.26
2022-08-17T06:14:00.802Z,86.92
2022-08-17T06:15:07.359Z,85.96
2022-08-17T06:16:33.247Z,84.75
2022-08-17T06:17:22.120Z,83.27
2022-08-17T06:18:14.807Z,82.48
2022-08-17T06:19:39.126Z,80.49
2022-08-17T06:20:32.965Z,80.70
2022-08-17T06:21:23.770Z,78.15
2022-08-17T06:22:22.022Z,76.85
2022-08-17T06:23:18.182Z,75.60
2022-08-17T06:24:30.091Z,74.62
2022-08-17T06:25:34.734Z,74.24
2022-08-17T06:26:37.249Z,72.50
2022-08-17T06:28:02.914Z,71.18
2022-08-17T06:29:18.718Z,70.68
2022-08-17T06:30:17.629Z,70.25
2022-08-17T06:31:31.300Z,70.06
2022-08-17T06:32:18.765Z,68.76
2022-08-17T06:33:16.996Z,68.76
2022-08-17T06:34:09.151Z,68.59
2022-08-17T06:34:57.413Z,68.45
2022-08-17T06:36:16.069Z,66.94
2022-08-17T06:37:18.872Z,66.91
2022-08-17T06:38:37.540Z,66.06
2022-08-17T06:39:48.166Z,65.95
2022-08-17T06:40:49.707Z,65.33
2022-08-17T06:41:44.914Z,65.45
2022-08-17T06:43:06.429Z,65.58
2022-08-17T06:44:12.649Z,65.17
2022-08-17T06:45:34.825Z,65.54
2022-08-17T06:46:46.215Z,65.00
2022-08-17T06:47:41.680Z,64.84
2022-08-17T06:48:40.167Z,65.29
2022-08-17T06:49:42.208Z,64.18
2022-08-17T06:50:30.148Z,64.40
2022-08-17T06:51:30.021Z,64.18
2022-08-17T06:52:56.058Z,63.89
2022-08-17T06:53:45.426Z,63.64
2022-08-17T06:54:59.426Z,62.97
2022-08-17T06:56:12.773Z,61.62
2022-08-17T06:57:14.797Z,61.28
2022-08-17T06:58:16.313Z,60.41
2022-08-17T06:59:08.108Z,60.08
2022-08-17T07:00:01.847Z,59.67
2022-08-17T07:00:58.708Z,59.91
2022-08-17T07:01:50.066Z,59.44
2022-08-17T07:03:02.377Z,59.12
2022-08-17T07:03:59.368Z,59.02
2022-08-17T07:04:52.466Z,59.88
2022-08-17T07:05:47.938Z,58.40
2022-08-17T07:06:49.276Z,58.58
2022-08-17T07:07:58.463Z,57.37
2022-08-17T07:09:07.378Z,57.74
2022-08-17T07:09:59.781Z,58.60
2022-08-17T07:10:53.714Z,58.95
2022-08-17T07:11:54.480Z,59.26
2022-08-17T07:12:45.634Z,59.10
2022-08-17T07:13:53.388Z,58.76
2022-08-17T07:15:07.726Z,58.04
2022-08-17T07:16:07.503Z,59.04
2022-08-17T07:16:58.006Z,59.20
2022-08-17T07:17:48.358Z,59.03
2022-08-17T07:18:35.150Z,59.40
2022-08-17T07:19:26.289Z,59.28
2022-08-17T07:20:17.882Z,58.31
2022-08-17T07:21:31.653Z,58.74
2022-08-17T07:22:50.393Z,59.74
2022-08-17T07:24:02.489Z,59.53
2022-08-17T07:24:59.495Z,59.49
2022-08-17T07:25:46.680Z,59.03
2022-08-17T07:26:33.531Z,59.08
2022-08-17T07:27:22.974Z,59.32
2022-08-17T07:28:09.618Z,59.65
2022-08-17T07:28:56.503Z,59.18
2022-08-17T07:29:50.421Z,59.70
2022-08-17T07:30:47.337Z,59.73
2022-08-17T07:31:34.564Z,60.02
2022-08-17T07:32:26.273Z,59.77
2022-08-17T07:33:20.205Z,59.86
2022-08-17T07:34:14.314Z,59.43
2022-08-17T07:35:23.106Z,58.92
2022-08-17T07:36:30.218Z,57.33
2022-08-17T07:37:19.435Z,58.26
2022-08-17T07:38:24.732Z,57.72
2022-08-17T07:39:27.746Z,56.68
2022-08-17T07:40:26.839Z,56.94
2022-08-17T07:41:13.784Z,56.26
2022-08-17T07:42:04.829Z,57.14
2022-08-17T07:43:22.244Z,57.16
2022-08-17T07:44:13.466Z,57.96
2022-08-17T07:45:22.932Z,58.21
2022-08-17T07:46:53.799Z,58.35
2022-08-17T07:47:59.095Z,58.18
2022-08-17T07:48:50.675Z,58.61
2022-08-17T07:49:41.455Z,58.75
2022-08-17T07:50:29.583Z,58.64
2022-08-17T07:51:31.144Z,59.35
2022-08-17T07:52:50.797Z,58.51
2022-08-17T07:53:38.952Z,58.88
2022-08-17T07:54:35.616Z,58.54
2022-08-17T07:55:31.512Z,59.59
2022-08-17T07:56:38.204Z,60.19
2022-08-17T07:57:34.139Z,61.19
2022-08-17T07:58:23.734Z,61.55
2022-08-17T07:59:17.959Z,62.04
2022-08-17T08:00:19.341Z,62.39
2022-08-17T08:01:15.462Z,62.71
2022-08-17T08:02:16.991Z,63.86
2022-08-17T08:03:15.906Z,63.79
2022-08-17T08:04:03.381Z,63.54
2022-08-17T08:05:30.682Z,63.58
2022-08-17T08:06:27.872Z,63.28
2022-08-17T08:07:17.359Z,63.46
2022-08-17T08:08:18.567Z,63.04
2022-08-17T08:09:05.045Z,62.98
2022-08-17T08:10:04.592Z,62.92
2022-08-17T08:11:06.110Z,63.33
2022-08-17T08:11:52.867Z,62.93
2022-08-17T08:12:41.764Z,62.83
2022-08-17T08:13:30.144Z,62.81
2022-08-17T08:14:28.519Z,62.86
2022-08-17T08:15:18.659Z,62.45
2022-08-17T08:16:17.019Z,62.39
2022-08-17T08:17:09.418Z,62.33
2022-08-17T08:18:02.898Z,62.21
2022-08-17T08:18:56.859Z,61.85
2022-08-17T08:19:45.422Z,61.69
2022-08-17T08:20:53.464Z,62.60
2022-08-17T08:22:05.976Z,62.10
2022-08-17T08:23:06.116Z,63.49
2022-08-17T08:24:00.118Z,63.30
2022-08-17T08:25:07.871Z,64.09
2022-08-17T08:26:27.385Z,63.77
2022-08-17T08:27:31.217Z,64.63
2022-08-17T08:28:37.011Z,64.20
2022-08-17T08:29:55.253Z,64.44
2022-08-17T08:30:49.137Z,64.80
2022-08-17T08:31:50.803Z,65.55
2022-08-17T08:33:10.487Z,65.90
2022-08-17T08:34:49.731Z,66.33
2022-08-17T08:35:53.765Z,65.89
2022-08-17T08:37:16.008Z,66.44
2022-08-17T08:38:38.487Z,66.73
2022-08-17T08:39:42.058Z,66.91
2022-08-17T08:41:12.660Z,67.29
2022-08-17T08:42:13.114Z,67.08
2022-08-17T08:43:52.229Z,66.84
2022-08-17T08:45:05.061Z,67.48
2022-08-17T08:46:10.238Z,67.30
2022-08-17T08:47:19.411Z,66.68
2022-08-17T08:48:52.816Z,66.93
2022-08-17T08:50:03.865Z,66.52
2022-08-17T08:51:05.155Z,66.25
2022-08-17T08:51:56.015Z,67.04
2022-08-17T08:53:10.412Z,66.81
2022-08-17T08:54:35.052Z,67.02
2022-08-17T08:55:32.397Z,66.90
2022-08-17T08:56:53.777Z,67.10
2022-08-17T08:58:00.639Z,66.89
2022-08-17T08:59:25.807Z,66.84
2022-08-17T09:00:20.045Z,67.85
2022-08-17T09:01:20.827Z,67.88
2022-08-17T09:02:42.989Z,68.26
2022-08-17T09:04:06.728Z,68.16
2022-08-17T09:05:38.162Z,68.68
2022-08-17T09:06:51.100Z,68.04
2022-08-17T09:07:49.768Z,68.63
2022-08-17T09:08:59.510Z,68.13
2022-08-17T09:10:07.097Z,67.74
2022-08-17T09:11:00.537Z,67.73
2022-08-17T09:12:05.091Z,67.53
2022-08-17T09:13:18.746Z,67.09
2022-08-17T09:14:21.736Z,66.65
2022-08-17T09:15:33.438Z,66.52
2022-08-17T09:16:29.753Z,66.21
2022-08-17T09:17:23.062Z,65.83
2022-08-17T09:19:00.248Z,66.50
2022-08-17T09:19:39.040Z,66.12
2022-08-17T09:20:46.633Z,65.48
2022-08-17T09:22:19.132Z,65.92
2022-08-17T09:23:13.755Z,65.72
2022-08-17T09:24:20.779Z,65.32
2022-08-17T09:25:12.544Z,65.76
2022-08-17T09:26:23.939Z,65.97
2022-08-17T09:27:19.960Z,66.04
2022-08-17T09:28:19.093Z,66.07
2022-08-17T09:29:12.718Z,65.27
2022-08-17T09:30:06.821Z,65.29
2022-08-17T09:31:04.158Z,65.37
2022-08-17T09:32:01.517Z,64.91
2022-08-17T09:32:56.285Z,64.97
2022-08-17T09:33:46.655Z,64.69
2022-08-17T09:34:49.645Z,65.26
2022-08-17T09:35:44.597Z,65.40
2022-08-17T09:36:40.491Z,65.22
2022-08-17T09:37:48.933Z,64.61
2022-08-17T09:38:52.613Z,65.02
2022-08-17T09:39:50.819Z,64.23
2022-08-17T09:41:09.087Z,64.78
2022-08-17T09:42:13.493Z,64.67
2022-08-17T09:43:20.815Z,64.95
2022-08-17T09:44:36.713Z,64.50
2022-08-17T09:45:37.652Z,64.86
2022-08-17T09:46:48.423Z,65.37
2022-08-17T09:47:45.848Z,65.53
2022-08-17T09:49:09.688Z,65.70
2022-08-17T09:51:05.453Z,66.86
2022-08-17T09:51:36.707Z,67.29
2022-08-17T09:52:26.536Z,67.46
2022-08-17T09:53:13.535Z,67.07
2022-08-17T09:54:21.365Z,67.33
2022-08-17T09:55:10.257Z,67.04
2022-08-17T09:56:19.480Z,67.24
2022-08-17T09:57:31.639Z,67.79
2022-08-17T09:58:56.427Z,68.30
2022-08-17T10:00:17.275Z,68.79
2022-08-17T10:01:25.521Z,68.67
2022-08-17T10:02:42.678Z,69.24
2022-08-17T10:03:41.448Z,69.64
2022-08-17T10:04:56.329Z,69.19
2022-08-17T10:06:07.795Z,69.96
2022-08-17T10:07:14.678Z,69.24
2022-08-17T10:08:22.817Z,69.94
2022-08-17T10:09:42.190Z,69.36
2022-08-17T10:10:43.372Z,69.26
2022-08-17T10:12:11.305Z,69.97
2022-08-17T10:13:18.406Z,70.28
2022-08-17T10:14:37.735Z,73.45
2022-08-17T10:15:36.694Z,75.40
2022-08-17T10:16:55.804Z,75.85
2022-08-17T10:18:07.355Z,78.63
2022-08-17T10:18:53.836Z,80.74
2022-08-17T10:20:08.828Z,83.07
2022-08-17T10:21:26.207Z,80.33
2022-08-17T10:22:43.623Z,78.93
2022-08-17T10:23:49.828Z,76.95
2022-08-17T10:25:23.227Z,76.03
2022-08-17T10:26:20.641Z,75.76
2022-08-17T10:27:16.128Z,74.30
2022-08-17T10:28:14.244Z,73.90
2022-08-17T10:29:22.787Z,72.78
2022-08-17T10:30:15.701Z,72.78
2022-08-17T10:32:25.769Z,71.93
2022-08-17T10:33:34.840Z,71.97
2022-08-17T10:34:41.106Z,70.88
2022-08-17T10:35:35.007Z,70.60
2022-08-17T10:36:37.986Z,70.25
2022-08-17T10:37:36.558Z,69.52
2022-08-17T10:38:45.910Z,70.01
2022-08-17T10:40:20.674Z,70.40
2022-08-17T10:41:28.662Z,70.72
2022-08-17T10:42:48.886Z,69.50
2022-08-17T10:43:44.562Z,69.35
2022-08-17T10:45:02.239Z,68.76
2022-08-17T10:46:10.600Z,68.25
2022-08-17T10:47:14.550Z,68.47
2022-08-17T10:48:25.993Z,68.41
2022-08-17T10:49:22.036Z,67.39
2022-08-17T10:50:47.411Z,67.57
2022-08-17T10:51:38.427Z,67.91
2022-08-17T10:52:45.985Z,67.37
2022-08-17T10:53:32.545Z,67.48
2022-08-17T10:54:25.132Z,66.63
2022-08-17T10:55:18.102Z,65.22
2022-08-17T10:56:13.802Z,65.01
2022-08-17T10:57:03.182Z,64.99
2022-08-17T10:57:50.485Z,64.27
2022-08-17T10:58:55.512Z,63.85
2022-08-17T10:59:42.134Z,62.46
2022-08-17T11:00:41.001Z,63.02
2022-08-17T11:01:34.122Z,62.94
2022-08-17T11:02:38.133Z,61.82
2022-08-17T11:03:26.528Z,60.15
2022-08-17T11:04:54.008Z,59.67
2022-08-17T11:05:55.867Z,58.37
2022-08-17T11:07:12.048Z,58.22
2022-08-17T11:08:37.591Z,57.41
2022-08-17T11:09:35.817Z,57.59
2022-08-17T11:10:57.902Z,59.28
2022-08-17T11:11:53.013Z,59.38
2022-08-17T11:13:01.948Z,59.99
2022-08-17T11:14:04.529Z,59.88
2022-08-17T11:15:03.533Z,60.41
2022-08-17T11:16:17.428Z,61.07
2022-08-17T11:17:19.132Z,61.54
2022-08-17T11:18:41.723Z,60.85
2022-08-17T11:20:08.151Z,61.49
2022-08-17T11:21:09.821Z,60.73
2022-08-17T11:22:17.369Z,61.39
2022-08-17T11:23:27.583Z,61.19
2022-08-17T11:24:19.267Z,61.89
2022-08-17T11:25:18.804Z,62.62
2022-08-17T11:26:26.177Z,61.91
2022-08-17T11:27:31.297Z,61.27
2022-08-17T11:28:24.767Z,61.33
2022-08-17T11:29:51.979Z,61.33
2022-08-17T11:30:48.721Z,60.99
2022-08-17T11:31:41.345Z,60.78
2022-08-17T11:32:54.525Z,60.96
2022-08-17T11:33:41.404Z,61.05
2022-08-17T11:34:32.345Z,60.85
2022-08-17T11:35:21.949Z,60.44
2022-08-17T11:36:14.501Z,60.13
2022-08-17T11:37:28.980Z,58.72
2022-08-17T11:38:41.665Z,57.39
2022-08-17T11:39:44.091Z,57.40
2022-08-17T11:40:51.326Z,57.89
2022-08-17T11:42:20.276Z,56.32
2022-08-17T11:43:19.414Z,55.36
2022-08-17T11:44:24.548Z,55.44
2022-08-17T11:45:39.032Z,54.72
2022-08-17T11:47:07.135Z,55.58
2022-08-17T11:48:36.820Z,54.62
2022-08-17T11:50:27.681Z,54.09
2022-08-17T11:51:34.816Z,55.18
2022-08-17T11:52:42.215Z,54.88
2022-08-17T11:53:38.533Z,53.83
2022-08-17T11:54:33.759Z,54.61
2022-08-17T11:55:38.414Z,54.82
2022-08-17T11:56:38.289Z,54.71
2022-08-17T11:57:27.616Z,54.76
2022-08-17T11:58:44.216Z,55.19
2022-08-17T11:59:37.026Z,55.04
2022-08-17T12:00:42.061Z,55.06
2022-08-17T12:01:31.434Z,55.29
2022-08-17T12:02:38.639Z,54.56
2022-08-17T12:03:34.211Z,53.26
2022-08-17T12:04:21.760Z,52.96